createdAt,value
2022-08-05T00:01:36.242Z,8.27
2022-08-05T00:04:18.519Z,8.27
2022-08-05T00:06:51.965Z,4.57
2022-08-05T00:09:21.600Z,5.13
2022-08-05T00:11:55.649Z,5.22
2022-08-05T00:16:58.723Z,5.15
2022-08-05T00:19:33.159Z,4.85
2022-08-05T00:22:03.405Z,5.85
2022-08-05T00:24:33.756Z,3.08
2022-08-05T00:27:28.337Z,5.63
2022-08-05T00:29:56.366Z,3.75
2022-08-05T00:32:25.838Z,5.32
2022-08-05T00:35:06.617Z,3.25
2022-08-05T00:37:52.351Z,3.10
2022-08-05T00:40:26.672Z,4.75
2022-08-05T00:42:58.847Z,4.00
2022-08-05T00:45:37.846Z,2.75
2022-08-05T00:48:06.725Z,3.05
2022-08-05T00:50:34.955Z,2.55
2022-08-05T00:53:03.735Z,2.38
2022-08-05T00:55:44.102Z,2.97
2022-08-05T00:58:13.824Z,3.45
2022-08-05T01:00:42.186Z,5.40
2022-08-05T01:03:10.523Z,3.92
2022-08-05T01:05:50.433Z,4.38
2022-08-05T01:08:31.645Z,4.05
2022-08-05T01:11:11.242Z,3.42
2022-08-05T01:13:58.823Z,7.93
2022-08-05T01:16:31.079Z,4.40
2022-08-05T01:19:02.189Z,9.52
2022-08-05T01:21:50.652Z,4.53
2022-08-05T01:24:30.205Z,5.20
2022-08-05T01:27:17.718Z,4.70
2022-08-05T01:29:50.070Z,7.82
2022-08-05T01:32:27.847Z,4.40
2022-08-05T01:34:59.718Z,7.20
2022-08-05T01:37:44.338Z,4.35
2022-08-05T01:42:47.712Z,7.65
2022-08-05T01:45:21.954Z,4.38
2022-08-05T01:47:54.529Z,6.88
2022-08-05T01:50:28.813Z,5.13
2022-08-05T01:53:01.583Z,6.55
2022-08-05T01:55:36.139Z,8.55
2022-08-05T01:58:10.638Z,5.03
2022-08-05T02:00:57.649Z,8.57
2022-08-05T02:03:33.932Z,8.38
2022-08-05T02:06:03.679Z,8.00
2022-08-05T02:08:57.829Z,7.30
2022-08-05T02:11:33.169Z,7.00
2022-08-05T02:14:03.898Z,8.90
2022-08-05T02:16:35.913Z,7.53
2022-08-05T02:19:07.905Z,8.52
2022-08-05T02:21:46.920Z,7.07
2022-08-05T02:24:23.124Z,14.05
2022-08-05T02:26:54.697Z,9.38
2022-08-05T02:29:58.158Z,12.40
2022-08-05T02:32:23.708Z,5.85
2022-08-05T02:34:54.740Z,6.60
2022-08-05T02:37:23.511Z,4.80
2022-08-05T02:39:53.090Z,5.43
2022-08-05T02:42:27.540Z,4.38
2022-08-05T02:44:56.548Z,4.05
2022-08-05T02:47:26.524Z,5.22
2022-08-05T02:50:14.866Z,5.32
2022-08-05T02:52:46.202Z,5.65
2022-08-05T02:55:14.437Z,5.53
2022-08-05T02:58:10.043Z,6.82
2022-08-05T03:00:33.887Z,5.90
2022-08-05T03:03:10.205Z,5.90
2022-08-05T03:06:56.886Z,3.92
2022-08-05T03:08:29.760Z,5.22
2022-08-05T03:11:01.078Z,7.95
2022-08-05T03:13:51.487Z,4.20
2022-08-05T03:19:01.332Z,6.18
2022-08-05T03:21:41.448Z,7.65
2022-08-05T03:24:18.231Z,7.70
2022-08-05T03:26:57.747Z,8.55
2022-08-05T03:29:45.652Z,15.65
2022-08-05T03:32:14.237Z,5.10
2022-08-05T03:34:50.683Z,5.93
2022-08-05T03:37:19.550Z,4.68
2022-08-05T03:39:58.700Z,6.65
2022-08-05T03:42:29.084Z,7.10
2022-08-05T03:44:57.217Z,5.60
2022-08-05T03:47:25.523Z,6.53
2022-08-05T03:50:00.264Z,9.07
2022-08-05T03:52:38.381Z,6.10
2022-08-05T03:56:10.358Z,6.30
2022-08-05T03:58:11.228Z,5.55
2022-08-05T04:00:39.361Z,8.98
2022-08-05T04:03:14.935Z,5.85
2022-08-05T04:05:59.170Z,6.07
2022-08-05T04:08:35.132Z,4.80
2022-08-05T04:11:05.211Z,5.40
2022-08-05T04:13:50.155Z,6.05
2022-08-05T04:16:25.196Z,6.45
2022-08-05T04:19:00.306Z,7.15
2022-08-05T04:22:09.848Z,5.20
2022-08-05T04:24:33.073Z,8.93
2022-08-05T04:27:01.101Z,4.75
2022-08-05T04:29:29.090Z,9.60
2022-08-05T04:31:57.891Z,8.40
2022-08-05T04:34:32.365Z,4.30
2022-08-05T04:37:03.235Z,5.22
2022-08-05T04:39:32.214Z,4.03
2022-08-05T04:42:00.524Z,7.20
2022-08-05T04:44:30.696Z,4.72
2022-08-05T04:46:59.314Z,8.85
2022-08-05T04:49:39.042Z,9.90
2022-08-05T04:52:16.969Z,5.18
2022-08-05T04:54:46.732Z,8.43
2022-08-05T04:57:14.846Z,5.65
2022-08-05T04:59:43.524Z,4.20
2022-08-05T05:02:36.765Z,7.03
2022-08-05T05:05:04.122Z,7.65
2022-08-05T05:07:56.379Z,4.85
2022-08-05T05:10:29.948Z,4.03
2022-08-05T05:12:57.987Z,3.90
2022-08-05T05:15:57.395Z,6.28
2022-08-05T05:18:15.050Z,3.60
2022-08-05T05:20:58.539Z,5.25
2022-08-05T05:24:01.840Z,3.92
2022-08-05T05:26:16.126Z,6.05
2022-08-05T05:28:44.802Z,6.18
2022-08-05T05:31:13.227Z,5.80
2022-08-05T05:34:01.581Z,9.60
2022-08-05T05:36:30.021Z,10.93
2022-08-05T05:38:59.622Z,5.40
2022-08-05T05:41:40.761Z,3.67
2022-08-05T05:44:35.730Z,5.55
2022-08-05T05:46:58.325Z,6.95
2022-08-05T05:49:30.202Z,11.40
2022-08-05T05:52:01.153Z,4.88
2022-08-05T05:54:50.870Z,3.35
2022-08-05T05:57:19.943Z,4.32
2022-08-05T05:59:48.697Z,3.83
2022-08-05T06:02:17.132Z,3.10
2022-08-05T06:05:03.396Z,3.75
2022-08-05T06:07:41.797Z,4.57
2022-08-05T06:10:12.040Z,4.55
2022-08-05T06:12:42.187Z,4.60
2022-08-05T06:15:16.561Z,7.30
2022-08-05T06:17:54.384Z,3.25
2022-08-05T06:20:23.159Z,5.03
2022-08-05T06:22:51.174Z,3.72
2022-08-05T06:25:25.339Z,3.97
2022-08-05T06:28:11.584Z,2.90
2022-08-05T06:30:48.439Z,3.47
2022-08-05T06:33:19.234Z,3.90
2022-08-05T06:36:05.798Z,3.92
2022-08-05T06:38:35.604Z,4.40
2022-08-05T06:41:07.993Z,3.45
2022-08-05T06:43:59.115Z,2.42
2022-08-05T06:46:30.197Z,3.42
2022-08-05T06:48:59.650Z,3.92
2022-08-05T06:51:30.021Z,3.47
2022-08-05T06:54:01.995Z,6.85
2022-08-05T06:56:34.420Z,5.25
2022-08-05T06:59:03.084Z,3.50
2022-08-05T07:01:32.292Z,3.35
2022-08-05T07:04:01.393Z,7.05
2022-08-05T07:06:31.777Z,3.78
2022-08-05T07:09:00.243Z,6.07
2022-08-05T07:11:37.329Z,3.88
2022-08-05T07:14:29.660Z,4.38
2022-08-05T07:18:01.761Z,3.75
2022-08-05T07:22:37.144Z,4.57
2022-08-05T07:25:23.118Z,2.47
2022-08-05T07:27:58.206Z,6.13
2022-08-05T07:33:01.927Z,2.30
2022-08-05T07:36:04.968Z,4.95
2022-08-05T07:38:26.383Z,3.47
2022-08-05T07:41:16.810Z,5.13
2022-08-05T07:43:51.056Z,1.90
2022-08-05T07:46:25.149Z,2.00
2022-08-05T07:49:03.380Z,2.65
2022-08-05T07:51:36.888Z,2.20
2022-08-05T07:54:09.684Z,3.10
2022-08-05T07:56:59.950Z,3.30
2022-08-05T07:59:38.797Z,2.40
2022-08-05T08:02:15.916Z,2.60
2022-08-05T08:04:46.622Z,2.05
2022-08-05T08:07:22.198Z,3.88
2022-08-05T08:09:52.485Z,4.40
2022-08-05T08:12:35.332Z,2.22
2022-08-05T08:15:09.784Z,4.53
2022-08-05T08:17:46.172Z,2.33
2022-08-05T08:20:45.074Z,2.40
2022-08-05T08:23:11.535Z,4.60
2022-08-05T08:26:00.825Z,3.15
2022-08-05T08:28:37.192Z,4.10
2022-08-05T08:31:19.384Z,4.60
2022-08-05T08:33:51.728Z,3.63
2022-08-05T08:36:29.400Z,7.63
2022-08-05T08:39:14.852Z,4.78
2022-08-05T08:41:52.562Z,6.22
2022-08-05T08:45:25.208Z,2.67
2022-08-05T08:47:46.955Z,3.53
2022-08-05T08:50:32.743Z,2.05
2022-08-05T08:53:01.048Z,2.25
2022-08-05T08:56:01.864Z,3.28
2022-08-05T08:58:17.439Z,2.85
2022-08-05T09:00:45.536Z,3.05
2022-08-05T09:03:16.236Z,4.50
2022-08-05T09:06:08.100Z,4.63
2022-08-05T09:08:36.043Z,2.67
2022-08-05T09:11:08.711Z,4.95
2022-08-05T09:14:00.899Z,2.38
2022-08-05T09:16:30.069Z,2.85
2022-08-05T09:19:00.154Z,3.75
2022-08-05T09:22:21.922Z,2.97
2022-08-05T09:24:17.569Z,3.85
2022-08-05T09:26:48.151Z,2.65
2022-08-05T09:32:40.726Z,4.03
2022-08-05T09:34:53.031Z,2.55
2022-08-05T09:38:16.564Z,2.20
2022-08-05T09:40:11.368Z,1.67
2022-08-05T09:42:42.506Z,1.80
2022-08-05T09:46:06.277Z,2.50
2022-08-05T09:48:22.249Z,1.50
2022-08-05T09:50:59.072Z,4.10
2022-08-05T09:53:54.062Z,1.85
2022-08-05T09:56:25.698Z,1.45
2022-08-05T09:59:01.716Z,4.22
2022-08-05T10:01:33.637Z,1.98
2022-08-05T10:04:10.243Z,1.70
2022-08-05T10:06:54.863Z,1.83
2022-08-05T10:09:30.084Z,2.17
2022-08-05T10:12:31.651Z,5.00
2022-08-05T10:15:17.095Z,4.63
2022-08-05T10:17:56.703Z,5.78
2022-08-05T10:20:27.018Z,3.25
2022-08-05T10:23:00.393Z,6.93
2022-08-05T10:25:29.853Z,2.65
2022-08-05T10:28:12.768Z,2.20
2022-08-05T10:33:01.409Z,2.30
2022-08-05T10:33:36.321Z,1.58
2022-08-05T10:36:06.454Z,1.70
2022-08-05T10:38:37.299Z,3.45
2022-08-05T10:41:12.240Z,2.22
2022-08-05T10:43:47.302Z,1.45
2022-08-05T10:46:18.857Z,1.48
2022-08-05T10:49:01.466Z,1.15
2022-08-05T10:51:32.401Z,1.38
2022-08-05T10:54:28.321Z,1.98
2022-08-05T10:56:59.823Z,2.20
2022-08-05T11:00:03.581Z,1.40
2022-08-05T11:02:34.987Z,1.23
2022-08-05T11:05:10.658Z,0.95
2022-08-05T11:08:02.636Z,1.33
2022-08-05T11:10:37.262Z,1.63
2022-08-05T11:13:06.926Z,2.05
2022-08-05T11:16:01.392Z,1.10
2022-08-05T11:18:32.326Z,1.98
2022-08-05T11:21:06.419Z,1.40
2022-08-05T11:24:05.192Z,1.42
2022-08-05T11:26:34.623Z,1.30
2022-08-05T11:29:11.665Z,1.23
2022-08-05T11:31:54.275Z,1.10
2022-08-05T11:34:51.689Z,1.35
2022-08-05T11:38:29.409Z,1.20
2022-08-05T11:41:35.123Z,1.95
2022-08-05T11:44:07.245Z,1.02
2022-08-05T11:46:37.460Z,2.28
2022-08-05T11:49:10.277Z,1.45
2022-08-05T11:51:44.596Z,0.80
2022-08-05T11:54:32.848Z,1.35
2022-08-05T11:57:08.028Z,1.20
2022-08-05T11:59:50.243Z,1.23
2022-08-05T12:02:29.800Z,1.15
2022-08-05T12:05:06.745Z,1.45
2022-08-05T12:08:07.982Z,2.17
2022-08-05T12:10:38.476Z,1.23
2022-08-05T12:13:14.638Z,1.10
2022-08-05T12:15:49.955Z,0.80
2022-08-05T12:18:20.652Z,0.95
2022-08-05T12:20:53.461Z,0.82
2022-08-05T12:23:22.911Z,1.67
2022-08-05T12:25:53.511Z,1.10
2022-08-05T12:28:35.331Z,1.17
2022-08-05T12:31:07.479Z,1.10
2022-08-05T12:33:38.632Z,3.45
2022-08-05T12:36:09.522Z,1.05
2022-08-05T12:38:40.139Z,1.30
2022-08-05T12:41:13.985Z,0.73
2022-08-05T12:43:56.528Z,0.80
2022-08-05T12:46:29.233Z,1.52
2022-08-05T12:49:00.788Z,2.70
2022-08-05T12:52:13.901Z,1.67
2022-08-05T12:54:23.574Z,1.50
2022-08-05T12:56:56.812Z,1.15
2022-08-05T12:59:27.467Z,3.10
2022-08-05T13:02:20.749Z,1.20
2022-08-05T13:05:00.296Z,1.27
2022-08-05T13:07:59.267Z,3.42
2022-08-05T13:10:20.499Z,4.45
2022-08-05T13:12:50.963Z,0.98
2022-08-05T13:15:41.997Z,2.35
2022-08-05T13:18:21.608Z,1.08
2022-08-05T13:20:53.207Z,1.55
2022-08-05T13:23:23.118Z,1.60
2022-08-05T13:25:59.409Z,2.53
2022-08-05T13:28:33.639Z,1.80
2022-08-05T13:31:13.950Z,1.35
2022-08-05T13:34:22.197Z,1.80
2022-08-05T13:36:34.737Z,3.45
2022-08-05T13:39:08.596Z,3.70
2022-08-05T13:41:54.086Z,1.15
2022-08-05T13:44:25.149Z,2.40
2022-08-05T13:47:02.263Z,3.90
2022-08-05T13:49:45.355Z,3.40
2022-08-05T13:52:16.441Z,2.47
2022-08-05T13:54:53.564Z,3.45
2022-08-05T13:57:23.227Z,2.70
2022-08-05T13:59:57.506Z,2.58
2022-08-05T14:02:31.286Z,2.25
2022-08-05T14:05:15.304Z,2.78
2022-08-05T14:08:01.176Z,1.85
2022-08-05T14:10:35.553Z,1.80
2022-08-05T14:13:07.742Z,1.88
2022-08-05T14:16:04.960Z,3.75
2022-08-05T14:18:26.544Z,4.47
2022-08-05T14:20:57.391Z,1.20
2022-08-05T14:23:36.335Z,2.03
2022-08-05T14:26:07.032Z,1.45
2022-08-05T14:28:36.217Z,5.53
2022-08-05T14:32:03.227Z,2.10
2022-08-05T14:34:12.129Z,1.75
2022-08-05T14:36:43.411Z,1.00
2022-08-05T14:39:23.369Z,1.25
2022-08-05T14:42:19.371Z,7.50
2022-08-05T14:44:42.063Z,1.92
2022-08-05T14:47:11.565Z,2.28
2022-08-05T14:49:56.349Z,1.15
2022-08-05T14:52:51.540Z,4.03
2022-08-05T14:55:19.334Z,2.22
2022-08-05T14:57:54.870Z,2.10
2022-08-05T15:00:28.026Z,1.60
2022-08-05T15:02:59.087Z,1.45
2022-08-05T15:05:29.986Z,1.30
2022-08-05T15:08:57.599Z,1.02
2022-08-05T15:11:08.954Z,1.48
2022-08-05T15:13:45.781Z,2.78
2022-08-05T15:16:14.727Z,1.85
2022-08-05T15:18:47.200Z,1.90
2022-08-05T15:21:21.014Z,1.92
2022-08-05T15:23:51.717Z,1.67
2022-08-05T15:26:32.076Z,4.43
2022-08-05T15:29:02.376Z,1.95
2022-08-05T15:31:34.838Z,1.90
2022-08-05T15:34:19.134Z,1.48
2022-08-05T15:36:52.327Z,3.85
2022-08-05T15:40:58.917Z,1.15
2022-08-05T15:42:50.345Z,1.25
2022-08-05T15:45:03.368Z,1.73
2022-08-05T15:47:35.908Z,1.20
2022-08-05T15:50:06.420Z,1.35
2022-08-05T15:52:53.089Z,1.17
2022-08-05T15:56:04.205Z,1.40
2022-08-05T15:58:16.373Z,1.05
2022-08-05T16:00:50.595Z,0.95
2022-08-05T16:03:27.312Z,1.20
2022-08-05T16:06:00.834Z,2.22
2022-08-05T16:08:30.699Z,1.20
2022-08-05T16:11:01.611Z,1.10
2022-08-05T16:13:32.048Z,1.13
2022-08-05T16:16:04.239Z,1.90
2022-08-05T16:18:33.508Z,1.58
2022-08-05T16:21:04.275Z,1.05
2022-08-05T16:23:53.611Z,1.10
2022-08-05T16:26:26.504Z,1.13
2022-08-05T16:28:56.640Z,1.45
2022-08-05T16:31:26.243Z,1.20
2022-08-05T16:34:15.275Z,1.70
2022-08-05T16:36:45.312Z,1.60
2022-08-05T16:39:16.346Z,2.85
2022-08-05T16:42:15.015Z,1.15
2022-08-05T16:44:36.420Z,2.88
2022-08-05T16:47:07.009Z,2.08
2022-08-05T16:49:56.107Z,1.15
2022-08-05T16:52:32.701Z,1.80
2022-08-05T16:55:04.195Z,1.33
2022-08-05T16:57:53.757Z,2.67
2022-08-05T17:00:26.276Z,1.52
2022-08-05T17:03:04.720Z,1.23
2022-08-05T17:05:45.283Z,4.97
2022-08-05T17:08:35.886Z,6.90
2022-08-05T17:11:16.742Z,1.27
2022-08-05T17:13:47.958Z,3.17
2022-08-05T17:16:32.636Z,1.40
2022-08-05T17:19:03.294Z,4.78
2022-08-05T17:21:37.560Z,2.33
2022-08-05T17:24:27.967Z,5.60
2022-08-05T17:26:58.227Z,3.10
2022-08-05T17:29:40.235Z,1.95
2022-08-05T17:32:11.461Z,2.10
2022-08-05T17:34:46.223Z,2.05
2022-08-05T17:37:41.004Z,3.05
2022-08-05T17:40:10.810Z,1.92
2022-08-05T17:42:46.470Z,1.63
2022-08-05T17:45:23.002Z,1.58
2022-08-05T17:47:55.059Z,1.92
2022-08-05T17:50:28.235Z,2.22
2022-08-05T17:53:01.610Z,1.75
2022-08-05T17:55:37.257Z,1.45
2022-08-05T17:58:12.674Z,1.45
2022-08-05T18:00:47.580Z,1.23
2022-08-05T18:06:11.935Z,1.58
2022-08-05T18:08:46.182Z,1.05
2022-08-05T18:11:23.663Z,1.55
2022-08-05T18:13:57.708Z,2.28
2022-08-05T18:16:30.279Z,1.30
2022-08-05T18:18:59.687Z,1.23
2022-08-05T18:22:08.735Z,1.98
2022-08-05T18:24:18.163Z,1.23
2022-08-05T18:26:48.074Z,2.85
2022-08-05T18:29:17.611Z,1.30
2022-08-05T18:32:13.007Z,2.15
2022-08-05T18:34:43.140Z,1.13
2022-08-05T18:37:33.573Z,1.50
2022-08-05T18:40:34.316Z,2.65
2022-08-05T18:42:51.979Z,1.42
2022-08-05T18:45:21.653Z,1.67
2022-08-05T18:48:01.305Z,1.10
2022-08-05T18:50:49.437Z,1.23
2022-08-05T18:53:20.852Z,1.30
2022-08-05T18:55:52.062Z,1.95
2022-08-05T18:58:28.592Z,1.40
2022-08-05T19:00:57.213Z,1.20
2022-08-05T19:03:55.056Z,1.23
2022-08-05T19:06:21.731Z,1.80
2022-08-05T19:08:51.317Z,1.65
2022-08-05T19:11:28.433Z,2.20
2022-08-05T19:14:01.032Z,1.58
2022-08-05T19:16:46.830Z,1.42
2022-08-05T19:19:20.941Z,1.40
2022-08-05T19:21:51.566Z,1.50
2022-08-05T19:24:21.047Z,1.10
2022-08-05T19:27:04.398Z,2.15
2022-08-05T19:29:35.943Z,1.58
2022-08-05T19:32:11.151Z,1.48
2022-08-05T19:34:41.867Z,1.58
2022-08-05T19:37:11.358Z,1.17
2022-08-05T19:39:45.723Z,1.88
2022-08-05T19:42:35.016Z,1.67
2022-08-05T19:47:37.175Z,1.02
2022-08-05T19:50:11.980Z,1.30
2022-08-05T19:56:14.416Z,1.40
2022-08-05T19:58:19.735Z,1.50
2022-08-05T20:00:49.012Z,2.15
2022-08-05T20:03:17.061Z,1.17
2022-08-05T20:05:50.254Z,1.50
2022-08-05T20:10:54.100Z,1.60
2022-08-05T20:13:55.051Z,1.50
2022-08-05T20:16:11.958Z,1.70
2022-08-05T20:18:41.337Z,1.60
2022-08-05T20:21:12.125Z,2.40
2022-08-05T20:23:51.560Z,1.38
2022-08-05T20:26:24.653Z,2.03
2022-08-05T20:28:56.239Z,1.48
2022-08-05T20:31:36.959Z,1.67
2022-08-05T20:34:11.646Z,1.42
2022-08-05T20:36:43.826Z,1.42
2022-08-05T20:39:16.809Z,1.77
2022-08-05T20:41:47.939Z,1.90
2022-08-05T20:44:29.532Z,1.30
2022-08-05T20:47:00.367Z,2.75
2022-08-05T20:49:29.884Z,1.65
2022-08-05T20:52:09.006Z,1.90
2022-08-05T20:54:58.999Z,1.45
2022-08-05T20:57:43.963Z,1.38
2022-08-05T21:00:35.026Z,1.95
2022-08-05T21:03:07.939Z,1.55
2022-08-05T21:05:54.462Z,1.77
2022-08-05T21:08:32.865Z,1.40
2022-08-05T21:11:11.949Z,1.85
2022-08-05T21:13:48.186Z,1.48
2022-08-05T21:16:30.900Z,2.30
2022-08-05T21:19:01.401Z,1.90
2022-08-05T21:21:39.730Z,1.80
2022-08-05T21:24:15.580Z,1.88
2022-08-05T21:26:53.296Z,1.48
2022-08-05T21:29:31.307Z,1.65
2022-08-05T21:32:03.079Z,1.58
2022-08-05T21:34:33.131Z,2.22
2022-08-05T21:37:05.797Z,2.05
2022-08-05T21:39:40.321Z,1.42
2022-08-05T21:42:30.634Z,1.50
2022-08-05T21:44:59.351Z,1.50
2022-08-05T21:47:54.703Z,1.38
2022-08-05T21:50:17.664Z,1.85
2022-08-05T21:52:49.387Z,2.35
2022-08-05T21:56:01.737Z,9.50
2022-08-05T21:58:10.333Z,2.70
2022-08-05T22:00:40.076Z,6.90
2022-08-05T22:03:09.884Z,11.70
2022-08-05T22:05:49.252Z,7.97
2022-08-05T22:08:22.230Z,9.65
2022-08-05T22:10:53.485Z,13.10
2022-08-05T22:14:32.559Z,10.85
2022-08-05T22:16:32.150Z,7.88
2022-08-05T22:18:58.654Z,9.93
2022-08-05T22:21:26.910Z,10.95
2022-08-05T22:24:40.004Z,14.98
2022-08-05T22:27:20.636Z,16.77
2022-08-05T22:29:48.663Z,11.75
2022-08-05T22:32:22.990Z,11.23
2022-08-05T22:34:52.041Z,10.88
2022-08-05T22:37:20.714Z,8.85
2022-08-05T22:39:50.469Z,13.05
2022-08-05T22:42:26.022Z,13.75
2022-08-05T22:44:57.037Z,10.25
2022-08-05T22:47:29.422Z,11.05
2022-08-05T22:50:20.485Z,12.48
2022-08-05T22:52:46.752Z,8.52
2022-08-05T22:55:19.070Z,8.35
2022-08-05T22:57:49.825Z,10.18
2022-08-05T23:00:20.857Z,9.48
2022-08-05T23:02:49.633Z,10.43
2022-08-05T23:05:17.809Z,9.13
2022-08-05T23:07:48.863Z,10.25
2022-08-05T23:10:19.960Z,10.35
2022-08-05T23:12:51.175Z,8.52
2022-08-05T23:15:22.376Z,10.23
2022-08-05T23:18:01.492Z,9.43
2022-08-05T23:20:32.065Z,7.32
2022-08-05T23:23:00.329Z,7.57
2022-08-05T23:25:55.357Z,12.05
2022-08-05T23:28:21.038Z,9.57
2022-08-05T23:30:53.339Z,7.72
2022-08-05T23:34:03.135Z,6.88
2022-08-05T23:36:10.656Z,9.45
2022-08-05T23:38:38.774Z,6.47
2022-08-05T23:41:07.048Z,8.95
2022-08-05T23:44:05.229Z,13.48
2022-08-05T23:46:24.495Z,9.70
2022-08-05T23:48:59.750Z,9.07
2022-08-05T23:51:52.612Z,10.90
2022-08-05T23:54:25.648Z,8.20
2022-08-05T23:56:56.014Z,12.73
